Gainsborough, United Kingdom
Current Conditions -  °F | °C
As of 12:50 AM on Sunday 23 Nov 2014 (Local Time) from EGXP Reporting Station
Broken Clouds Broken Clouds  
Wind Chill:   Ceiling: 11000
Heat Index:   Visibility: 2.3mi
Dew Point:   Wind: 6mph
Humidity: 100%   Direction: 260°W
Pressure: 29.97"   Gusts: NA
Location:  53.38°N, 0.77°W
Report Text: EGXP 230050Z AUTO 26005KT 3700 // SCT038/// SCT048/// BKN110/// 09/09 Q1015
Loading
Personal Weather Stations






























Interactive Weather Map New forecast layout! Learn more

10-Day Weather Forecast

Advertisements
Track Severe Weather on mobile